Latest Weather Observations for Gosford

IDN60901

Issued at 9:21 pm EDT Monday 17 December 2018 (issued every 10 minutes, with the page automatically refreshed every 10 minutes)

About weather observations | Map of Sydney area stations | Latest observations for Sydney area | Other Formats
Station Details ID: 061425 Name: GOSFORD AWS Lat: -33.44 Lon: 151.36 Height: 7.0 m
Data from the previous 72 hours. | See also: Recent months at Gosford
Date/Time
EDT
Temp
°C
App
Temp
°C
Dew
Point
°C
Rel
Hum
%
Delta-T
°C
Wind Press
QNH
hPa
Press
MSL
hPa
Rain since
9am
mm
Dir  Spd
km/h
Gust
km/h
Spd
kts
Gust
kts
17/09:00pm 22.5 25.4 19.9 85 1.7 NE 4 6 2 3 - - 0.0
17/08:30pm 22.8 25.2 20.0 84 1.8 ENE 7 11 4 6 - - 0.0
17/08:00pm 23.8 26.1 19.9 79 2.5 ENE 7 11 4 6 - - 0.0
17/07:30pm 25.7 28.3 20.0 71 3.7 ESE 6 9 3 5 - - 0.0
17/07:00pm 26.5 28.1 19.1 64 4.8 ENE 9 15 5 8 - - 0.0
17/06:30pm 26.5 26.9 19.1 64 4.8 ENE 15 20 8 11 - - 0.0
17/06:00pm 26.8 27.7 19.2 63 4.9 NE 13 24 7 13 - - 0.0
17/05:30pm 27.1 27.4 18.7 60 5.4 ENE 15 20 8 11 - - 0.0
17/05:00pm 27.4 28.3 19.2 61 5.3 ENE 13 22 7 12 - - 0.0
17/04:30pm 26.8 27.9 20.4 68 4.2 E 15 24 8 13 - - 0.0
17/04:00pm 26.7 27.5 19.8 66 4.5 E 15 24 8 13 - - 0.0
17/03:30pm 26.9 27.2 19.5 64 4.8 ENE 17 22 9 12 - - 0.0
17/03:00pm 26.7 27.1 19.8 66 4.5 ENE 17 26 9 14 - - 0.0
17/02:30pm 26.9 27.3 19.8 65 4.6 ENE 17 24 9 13 - - 0.0
17/02:00pm 27.5 28.9 20.3 65 4.7 E 13 20 7 11 - - 0.0
17/01:30pm 28.8 29.4 18.6 54 6.6 ESE 13 19 7 10 - - 0.0
17/01:00pm 29.2 28.6 15.7 44 8.3 E 13 20 7 11 - - 0.0
17/12:30pm 29.9 28.7 12.8 35 10.1 SE 11 19 6 10 - - 0.0
17/12:00pm 29.9 28.4 13.2 36 9.9 SSW 13 22 7 12 - - 0.0
17/11:30am 29.7 28.6 13.0 35 9.9 SSW 11 17 6 9 - - 0.0
17/11:00am 29.2 29.1 13.8 39 9.2 S 7 11 4 6 - - 0.0
17/10:30am 28.8 28.7 15.0 43 8.4 S 9 13 5 7 - - 0.0
17/10:00am 28.4 28.8 16.3 47 7.5 SSW 9 13 5 7 - - 0.0
17/09:30am 28.1 30.1 19.1 58 5.8 SSW 7 11 4 6 - - 0.0
17/09:00am 26.8 29.4 19.2 63 4.9 S 4 7 2 4 - - 0.2
17/08:30am 26.1 29.1 20.0 69 4.0 S 4 6 2 3 - - 0.2
17/08:00am 25.1 28.5 20.1 74 3.2 SSE 2 4 1 2 - - 0.2
17/07:30am 23.3 27.0 19.9 81 2.2 CALM 0 4 0 2 - - 0.2
17/07:00am 21.3 24.4 19.6 90 1.1 ENE 2 4 1 2 - - 0.2
17/06:30am 19.9 23.2 19.2 96 0.4 CALM 0 0 0 0 - - 0.2
17/06:00am 19.4 22.5 18.7 96 0.4 CALM 0 0 0 0 - - 0.2
17/05:30am 19.3 22.3 18.5 95 0.5 CALM 0 0 0 0 - - 0.2
17/05:00am 19.7 22.9 18.9 95 0.5 CALM 0 0 0 0 - - 0.2
17/04:30am 19.7 22.8 18.7 94 0.6 CALM 0 0 0 0 - - 0.2
17/04:00am 19.7 22.8 18.7 94 0.6 CALM 0 0 0 0 - - 0.2
17/03:30am 19.8 22.9 18.6 93 0.7 CALM 0 0 0 0 - - 0.2
17/03:00am 20.1 22.5 18.8 92 0.8 NE 4 6 2 3 - - 0.2
17/02:30am 20.3 23.2 19.0 92 0.8 N 2 6 1 3 - - 0.2
17/02:00am 20.5 23.3 18.8 90 1.1 NE 2 4 1 2 - - 0.2
17/01:30am 20.8 23.6 18.9 89 1.2 ENE 2 4 1 2 - - 0.2
17/01:00am 20.9 24.1 18.8 88 1.3 CALM 0 0 0 0 - - 0.2
17/12:30am 21.6 24.8 18.8 84 1.8 CALM 0 0 0 0 - - 0.2
17/12:00am 22.1 24.9 18.9 82 2.0 N 2 6 1 3 - - 0.2
 
Date/Time
EDT
Temp
°C
App
Temp
°C
Dew
Point
°C
Rel
Hum
%
Delta-T
°C
Wind Press
QNH
hPa
Press
MSL
hPa
Rain since
9am
mm
Dir  Spd
km/h
Gust
km/h
Spd
kts
Gust
kts
16/11:30pm 22.2 25.1 19.0 82 2.0 NW 2 6 1 3 - - 0.2
16/11:00pm 22.8 25.6 18.8 78 2.5 WNW 2 4 1 2 - - 0.2
16/10:30pm 24.2 26.9 18.6 71 3.5 ESE 2 7 1 4 - - 0.2
16/10:00pm 24.0 26.7 18.6 72 3.4 SE 2 7 1 4 - - 0.2
16/09:30pm 24.4 26.4 19.2 73 3.3 N 7 17 4 9 - - 0.2
16/09:00pm 24.1 26.0 19.8 77 2.8 NE 9 26 5 14 - - 0.2
16/08:30pm 24.0 25.1 20.5 81 2.3 NE 15 32 8 17 - - 0.2
16/08:00pm 22.8 24.7 20.5 87 1.5 ENE 11 19 6 10 - - 0.2
16/07:30pm 23.7 24.2 20.8 84 1.9 ENE 19 26 10 14 - - 0.2
16/07:00pm 24.4 24.9 20.9 81 2.3 NE 19 30 10 16 - - 0.2
16/06:30pm 24.9 25.2 20.8 78 2.7 NE 20 35 11 19 - - 0.2
16/06:00pm 26.3 27.7 21.1 73 3.4 NE 15 30 8 16 - - 0.2
16/05:30pm 25.9 26.1 19.3 67 4.2 NE 17 32 9 17 - - 0.2
16/05:00pm 25.5 24.5 17.9 63 4.8 NNE 20 35 11 19 - - 0.2
16/04:30pm 26.5 25.2 19.1 64 4.8 NNE 24 41 13 22 - - 0.2
16/04:00pm 25.6 24.4 20.8 75 3.2 NE 28 52 15 28 - - 0.2
16/03:55pm 26.6 25.5 21.1 72 3.6 NE 28 52 15 28 - - 0.2
16/03:30pm 28.0 28.9 22.7 73 3.6 ENE 22 37 12 20 - - 0.2
16/03:00pm 28.4 29.5 22.4 70 4.1 ENE 20 35 11 19 - - 0.2
16/02:30pm 29.1 30.2 22.3 66 4.6 ENE 20 33 11 18 - - 0.2
16/02:00pm 29.4 29.9 21.9 64 5.1 ENE 22 39 12 21 - - 0.2
16/01:30pm 29.4 29.9 21.9 64 5.1 ENE 22 35 12 19 - - 0.2
16/01:00pm 29.2 30.2 21.7 64 5.0 ENE 19 28 10 15 - - 0.2
16/12:30pm 29.0 29.8 21.7 64 4.9 ENE 20 33 11 18 - - 0.2
16/12:00pm 29.1 31.4 22.8 69 4.3 ENE 15 20 8 11 - - 0.2
16/11:30am 28.3 30.7 22.3 70 4.1 ENE 13 24 7 13 - - 0.2
16/11:00am 27.6 29.9 22.8 75 3.3 ENE 15 20 8 11 - - 0.0
16/10:30am 26.9 29.6 22.1 75 3.2 NE 11 17 6 9 - - 0.0
16/10:00am 26.1 29.2 22.2 79 2.6 NE 9 17 5 9 - - 0.0
16/09:30am 26.5 29.5 21.9 76 3.1 NE 9 17 5 9 - - 0.0
16/09:00am 25.2 27.9 21.3 79 2.6 NE 9 13 5 7 - - 4.4
16/08:30am 23.9 27.8 21.8 88 1.4 N 4 9 2 5 - - 4.4
16/08:00am 23.1 27.0 21.9 93 0.8 NE 4 7 2 4 - - 4.4
16/07:30am 22.0 25.7 21.5 97 0.3 ENE 4 6 2 3 - - 4.4
16/07:00am 21.6 25.6 21.4 99 0.1 E 2 6 1 3 - - 4.4
16/06:30am 21.1 25.3 20.9 99 0.1 CALM 0 0 0 0 - - 4.4
16/06:00am 20.9 24.9 20.6 98 0.2 CALM 0 0 0 0 - - 4.4
16/05:30am 21.1 25.2 20.8 98 0.2 CALM 0 0 0 0 - - 4.4
16/05:00am 21.5 25.7 21.0 97 0.3 CALM 0 4 0 2 - - 4.4
16/04:30am 21.7 26.0 21.2 97 0.3 CALM 0 0 0 0 - - 4.4
16/04:00am 21.7 26.0 21.2 97 0.3 CALM 0 0 0 0 - - 4.4
16/03:30am 21.9 25.6 21.4 97 0.3 NE 4 11 2 6 - - 4.4
16/03:00am 22.0 26.3 21.2 95 0.5 CALM 0 0 0 0 - - 4.4
16/02:30am 22.3 26.7 21.3 94 0.7 CALM 0 0 0 0 - - 4.4
16/02:00am 22.4 25.7 21.4 94 0.7 NE 6 15 3 8 - - 4.4
16/01:30am 22.6 26.4 21.6 94 0.7 ENE 4 7 2 4 - - 4.4
16/01:00am 22.7 27.0 21.9 95 0.5 ENE 2 4 1 2 - - 4.4
16/12:30am 22.7 25.9 21.7 94 0.7 NNE 7 13 4 7 - - 4.4
16/12:00am 22.6 25.5 21.8 95 0.5 NNE 9 17 5 9 - - 4.4
 
Date/Time
EDT
Temp
°C
App
Temp
°C
Dew
Point
°C
Rel
Hum
%
Delta-T
°C
Wind Press
QNH
hPa
Press
MSL
hPa
Rain since
9am
mm
Dir  Spd
km/h
Gust
km/h
Spd
kts
Gust
kts
15/11:30pm 22.2 25.4 21.7 97 0.3 ENE 7 13 4 7 - - 4.4
15/11:00pm 22.3 26.2 21.8 97 0.3 ENE 4 7 2 4 - - 4.4
15/10:30pm 22.0 26.4 21.3 96 0.5 CALM 0 2 0 1 - - 4.4
15/10:00pm 22.2 25.0 21.5 96 0.5 ENE 9 15 5 8 - - 4.4
15/09:30pm 22.5 25.4 21.7 95 0.5 NE 9 17 5 9 - - 4.4
15/09:00pm 22.3 25.1 21.5 95 0.5 ENE 9 17 5 9 - - 4.0
15/08:30pm 22.0 25.6 20.5 91 1.0 E 2 4 1 2 - - 4.0
15/08:00pm 22.3 25.1 20.8 91 1.0 NNE 7 13 4 7 - - 4.0
15/07:30pm 22.7 23.3 21.0 90 1.1 N 19 33 10 18 - - 3.2
15/07:00pm 23.3 24.9 21.4 89 1.3 NE 15 22 8 12 - - 0.6
15/06:30pm 23.8 25.4 21.5 87 1.5 ENE 15 28 8 15 - - 0.6
15/06:00pm 24.2 26.4 20.5 80 2.4 ENE 9 15 5 8 - - 0.6
15/05:30pm 21.9 23.5 19.1 84 1.8 E 9 15 5 8 - - 0.6
15/05:00pm 23.6 22.4 18.5 73 3.2 NW 22 46 12 25 - - 0.4
15/04:30pm 25.9 27.9 21.6 77 2.9 NE 13 26 7 14 - - 0.0
15/04:00pm 27.0 29.0 22.2 75 3.2 NE 15 30 8 16 - - 0.0
15/03:30pm 26.2 27.9 21.6 76 3.1 ENE 15 32 8 17 - - 0.0
15/03:00pm 27.3 27.8 22.0 73 3.6 ENE 22 35 12 19 - - 0.0
15/02:30pm 27.4 29.3 22.8 76 3.1 E 17 28 9 15 - - 0.0
15/02:00pm 28.1 29.4 22.3 70 3.9 E 19 24 10 13 - - 0.0
15/01:30pm 28.3 30.7 22.3 70 4.1 E 13 20 7 11 - - 0.0
15/01:00pm 27.5 29.9 22.9 76 3.1 ENE 15 20 8 11 - - 0.0
15/12:30pm 27.6 29.7 22.5 74 3.4 ENE 15 26 8 14 - - 0.0
15/12:00pm 27.6 29.4 22.5 74 3.4 E 17 24 9 13 - - 0.0
15/11:30am 27.1 30.1 22.7 77 3.0 E 11 17 6 9 - - 0.0
15/11:00am 26.8 29.3 22.4 77 3.0 E 13 20 7 11 - - 0.0
15/10:30am 26.6 30.1 22.2 77 3.0 E 7 15 4 8 - - 0.0
15/10:00am 26.4 30.1 22.3 78 2.8 ESE 6 9 3 5 - - 0.0
15/09:30am 25.6 29.3 21.5 78 2.7 SSE 4 9 2 5 - - 0.0
15/09:00am 24.8 29.1 21.1 80 2.4 CALM 0 4 0 2 - - 2.6
15/08:30am 24.7 28.6 21.8 84 1.9 NNE 4 9 2 5 - - 2.6
15/08:00am 22.9 26.7 21.0 89 1.2 N 2 4 1 2 - - 2.6
15/07:30am 22.4 26.0 21.2 93 0.8 NNE 4 9 2 5 - - 2.6
15/07:00am 21.9 25.8 21.2 96 0.5 N 2 7 1 4 - - 2.6
15/06:30am 21.7 26.1 21.4 98 0.2 CALM 0 0 0 0 - - 2.6
15/06:00am 21.3 25.4 20.8 97 0.3 CALM 0 0 0 0 - - 2.6
15/05:30am 21.6 25.9 21.1 97 0.3 CALM 0 2 0 1 - - 2.6
15/05:00am 21.8 25.3 21.1 96 0.5 E 4 6 2 3 - - 2.6
15/04:30am 22.1 26.5 21.4 96 0.5 CALM 0 0 0 0 - - 2.6
15/04:00am 22.1 26.5 21.3 95 0.5 CALM 0 0 0 0 - - 2.6
15/03:30am 22.3 26.8 21.5 95 0.5 CALM 0 0 0 0 - - 2.6
15/03:00am 22.1 26.5 21.4 96 0.5 CALM 0 4 0 2 - - 2.6
15/02:30am 22.1 25.8 21.4 96 0.5 ENE 4 6 2 3 - - 2.6
15/02:00am 22.2 26.7 21.5 96 0.5 CALM 0 6 0 3 - - 2.6
15/01:30am 22.2 26.4 21.7 97 0.3 NE 2 4 1 2 - - 2.6
15/01:00am 22.1 26.2 21.6 97 0.3 ENE 2 6 1 3 - - 2.6
15/12:30am 21.6 25.9 21.1 97 0.3 CALM 0 0 0 0 - - 2.6
15/12:00am 21.6 25.6 21.3 98 0.2 SW 2 2 1 1 - - 2.6
 
Date/Time
EDT
Temp
°C
App
Temp
°C
Dew
Point
°C
Rel
Hum
%
Delta-T
°C
Wind Press
QNH
hPa
Press
MSL
hPa
Rain since
9am
mm
Dir  Spd
km/h
Gust
km/h
Spd
kts
Gust
kts
14/11:30pm 21.4 25.7 21.1 98 0.2 CALM 0 2 0 1 - - 2.6
14/11:00pm 21.5 24.9 21.0 97 0.3 ENE 4 6 2 3 - - 2.6
14/10:30pm 21.6 24.7 21.1 97 0.3 WNW 6 7 3 4 - - 2.6
14/10:00pm 21.6 25.4 20.9 96 0.5 WNW 2 4 1 2 - - 2.6
14/09:30pm 21.9 26.2 21.1 95 0.5 CALM 0 4 0 2 - - 2.6

Latest Capital City Observations: Canberra | Sydney | Melbourne | Brisbane | Adelaide | Perth | Hobart | Darwin

Other Formats:

Comma delimited format used in spreadsheet applications
http://www.bom.gov.au/fwo/IDN60901/IDN60901.94782.axf

JavaScript Object Notation format (JSON) in row-major order
http://www.bom.gov.au/fwo/IDN60901/IDN60901.94782.json